sensor_id;sensor_type;location;lat;lon;timestamp;temperature;humidity
52656;SHT85;35474;51.032;6.998;2022-12-26T00:00:25;12.81;84.80
52656;SHT85;35474;51.032;6.998;2022-12-26T00:02:52;12.78;84.69
52656;SHT85;35474;51.032;6.998;2022-12-26T00:05:18;12.72;84.94
52656;SHT85;35474;51.032;6.998;2022-12-26T00:07:45;12.75;84.67
52656;SHT85;35474;51.032;6.998;2022-12-26T00:10:11;12.92;83.69
52656;SHT85;35474;51.032;6.998;2022-12-26T00:12:38;12.92;83.65
52656;SHT85;35474;51.032;6.998;2022-12-26T00:15:04;12.95;83.40
52656;SHT85;35474;51.032;6.998;2022-12-26T00:17:31;12.76;83.94
52656;SHT85;35474;51.032;6.998;2022-12-26T00:19:57;12.86;83.38
52656;SHT85;35474;51.032;6.998;2022-12-26T00:22:24;12.84;83.24
52656;SHT85;35474;51.032;6.998;2022-12-26T00:24:50;13.00;82.15
52656;SHT85;35474;51.032;6.998;2022-12-26T00:27:17;13.09;81.24
52656;SHT85;35474;51.032;6.998;2022-12-26T00:29:43;13.23;80.29
52656;SHT85;35474;51.032;6.998;2022-12-26T00:32:10;13.27;79.89
52656;SHT85;35474;51.032;6.998;2022-12-26T00:34:36;13.32;79.52
52656;SHT85;35474;51.032;6.998;2022-12-26T00:37:03;13.42;79.21
52656;SHT85;35474;51.032;6.998;2022-12-26T00:39:30;13.42;79.23
52656;SHT85;35474;51.032;6.998;2022-12-26T00:41:56;13.34;79.40
52656;SHT85;35474;51.032;6.998;2022-12-26T00:44:22;13.39;79.20
52656;SHT85;35474;51.032;6.998;2022-12-26T00:46:49;13.36;79.42
52656;SHT85;35474;51.032;6.998;2022-12-26T00:49:15;13.40;79.30
52656;SHT85;35474;51.032;6.998;2022-12-26T00:51:42;13.36;79.25
52656;SHT85;35474;51.032;6.998;2022-12-26T00:54:08;13.40;79.15
52656;SHT85;35474;51.032;6.998;2022-12-26T00:56:35;13.43;78.78
52656;SHT85;35474;51.032;6.998;2022-12-26T01:00:35;13.43;78.87
52656;SHT85;35474;51.032;6.998;2022-12-26T01:03:02;13.40;78.91
52656;SHT85;35474;51.032;6.998;2022-12-26T01:05:31;13.39;79.03
52656;SHT85;35474;51.032;6.998;2022-12-26T01:07:58;13.43;78.89
52656;SHT85;35474;51.032;6.998;2022-12-26T01:10:45;13.42;78.91
52656;SHT85;35474;51.032;6.998;2022-12-26T01:13:12;13.40;78.77
52656;SHT85;35474;51.032;6.998;2022-12-26T01:15:39;13.40;78.60
52656;SHT85;35474;51.032;6.998;2022-12-26T01:18:12;13.33;78.74
52656;SHT85;35474;51.032;6.998;2022-12-26T01:20:38;13.34;78.30
52656;SHT85;35474;51.032;6.998;2022-12-26T01:23:04;13.43;78.11
52656;SHT85;35474;51.032;6.998;2022-12-26T01:25:31;13.42;78.12
52656;SHT85;35474;51.032;6.998;2022-12-26T01:27:57;13.37;78.47
52656;SHT85;35474;51.032;6.998;2022-12-26T01:30:24;13.43;78.04
52656;SHT85;35474;51.032;6.998;2022-12-26T01:32:56;13.47;77.82
52656;SHT85;35474;51.032;6.998;2022-12-26T01:35:27;13.46;77.77
52656;SHT85;35474;51.032;6.998;2022-12-26T01:37:54;13.47;78.15
52656;SHT85;35474;51.032;6.998;2022-12-26T01:40:21;13.44;78.19
52656;SHT85;35474;51.032;6.998;2022-12-26T01:42:48;13.43;78.30
52656;SHT85;35474;51.032;6.998;2022-12-26T01:47:52;13.46;78.20
52656;SHT85;35474;51.032;6.998;2022-12-26T01:52:55;13.36;78.50
52656;SHT85;35474;51.032;6.998;2022-12-26T01:55:26;13.39;78.07
52656;SHT85;35474;51.032;6.998;2022-12-26T01:57:56;13.39;78.10
52656;SHT85;35474;51.032;6.998;2022-12-26T02:00:28;13.39;78.14
52656;SHT85;35474;51.032;6.998;2022-12-26T02:02:54;13.32;78.49
52656;SHT85;35474;51.032;6.998;2022-12-26T02:05:40;13.33;78.19
52656;SHT85;35474;51.032;6.998;2022-12-26T02:08:09;13.32;78.35
52656;SHT85;35474;51.032;6.998;2022-12-26T02:10:45;13.29;78.50
52656;SHT85;35474;51.032;6.998;2022-12-26T02:13:33;13.33;78.42
52656;SHT85;35474;51.032;6.998;2022-12-26T02:16:02;13.32;78.64
52656;SHT85;35474;51.032;6.998;2022-12-26T02:18:31;13.26;78.84
52656;SHT85;35474;51.032;6.998;2022-12-26T02:21:43;13.33;78.45
52656;SHT85;35474;51.032;6.998;2022-12-26T02:27:02;13.36;78.12
52656;SHT85;35474;51.032;6.998;2022-12-26T02:30:01;13.36;78.29
52656;SHT85;35474;51.032;6.998;2022-12-26T02:40:45;13.42;77.52
52656;SHT85;35474;51.032;6.998;2022-12-26T02:43:40;13.42;77.31
52656;SHT85;35474;51.032;6.998;2022-12-26T02:46:33;13.40;77.54
52656;SHT85;35474;51.032;6.998;2022-12-26T02:49:53;13.37;77.70
52656;SHT85;35474;51.032;6.998;2022-12-26T02:52:59;13.37;77.69
52656;SHT85;35474;51.032;6.998;2022-12-26T02:55:46;13.34;77.68
52656;SHT85;35474;51.032;6.998;2022-12-26T02:58:43;13.34;77.69
52656;SHT85;35474;51.032;6.998;2022-12-26T03:01:32;13.33;77.70
52656;SHT85;35474;51.032;6.998;2022-12-26T03:04:27;13.26;77.90
52656;SHT85;35474;51.032;6.998;2022-12-26T03:07:26;13.18;78.46
52656;SHT85;35474;51.032;6.998;2022-12-26T03:10:21;13.02;79.44
52656;SHT85;35474;51.032;6.998;2022-12-26T03:13:14;12.98;79.60
52656;SHT85;35474;51.032;6.998;2022-12-26T03:15:50;12.99;79.49
52656;SHT85;35474;51.032;6.998;2022-12-26T03:18:41;12.99;79.57
52656;SHT85;35474;51.032;6.998;2022-12-26T03:21:26;12.98;79.71
52656;SHT85;35474;51.032;6.998;2022-12-26T03:23:57;12.96;79.69
52656;SHT85;35474;51.032;6.998;2022-12-26T03:26:28;12.99;79.59
52656;SHT85;35474;51.032;6.998;2022-12-26T03:29:08;12.93;79.84
52656;SHT85;35474;51.032;6.998;2022-12-26T03:31:55;12.95;79.99
52656;SHT85;35474;51.032;6.998;2022-12-26T03:34:24;12.57;83.27
52656;SHT85;35474;51.032;6.998;2022-12-26T03:39:46;11.68;89.79
52656;SHT85;35474;51.032;6.998;2022-12-26T03:51:38;11.44;92.10
52656;SHT85;35474;51.032;6.998;2022-12-26T03:58:21;11.41;91.81
52656;SHT85;35474;51.032;6.998;2022-12-26T04:00:46;11.42;90.96
52656;SHT85;35474;51.032;6.998;2022-12-26T04:03:35;11.47;91.01
52656;SHT85;35474;51.032;6.998;2022-12-26T04:06:25;11.49;90.70
52656;SHT85;35474;51.032;6.998;2022-12-26T04:09:20;11.59;90.15
52656;SHT85;35474;51.032;6.998;2022-12-26T04:12:13;11.49;90.37
52656;SHT85;35474;51.032;6.998;2022-12-26T04:18:22;11.55;89.78
52656;SHT85;35474;51.032;6.998;2022-12-26T04:21:19;11.54;89.69
52656;SHT85;35474;51.032;6.998;2022-12-26T04:24:13;11.52;89.72
52656;SHT85;35474;51.032;6.998;2022-12-26T04:27:03;11.54;89.72
52656;SHT85;35474;51.032;6.998;2022-12-26T04:29:51;11.52;89.96
52656;SHT85;35474;51.032;6.998;2022-12-26T04:32:44;11.49;90.16
52656;SHT85;35474;51.032;6.998;2022-12-26T04:35:33;11.52;90.30
52656;SHT85;35474;51.032;6.998;2022-12-26T04:38:26;11.47;90.16
52656;SHT85;35474;51.032;6.998;2022-12-26T04:41:15;11.48;89.97
52656;SHT85;35474;51.032;6.998;2022-12-26T04:44:04;11.47;90.06
52656;SHT85;35474;51.032;6.998;2022-12-26T04:46:38;11.54;90.05
52656;SHT85;35474;51.032;6.998;2022-12-26T04:49:08;11.49;90.01
52656;SHT85;35474;51.032;6.998;2022-12-26T04:51:55;11.47;89.96
52656;SHT85;35474;51.032;6.998;2022-12-26T04:54:24;11.47;90.22
52656;SHT85;35474;51.032;6.998;2022-12-26T04:56:51;11.48;90.32
52656;SHT85;35474;51.032;6.998;2022-12-26T04:59:18;11.45;90.10
52656;SHT85;35474;51.032;6.998;2022-12-26T05:01:45;11.45;90.12
52656;SHT85;35474;51.032;6.998;2022-12-26T05:04:30;11.44;90.02
52656;SHT85;35474;51.032;6.998;2022-12-26T05:10:19;11.39;90.55
52656;SHT85;35474;51.032;6.998;2022-12-26T05:12:49;11.41;90.76
52656;SHT85;35474;51.032;6.998;2022-12-26T05:15:16;11.35;90.98
52656;SHT85;35474;51.032;6.998;2022-12-26T05:17:43;11.31;91.34
52656;SHT85;35474;51.032;6.998;2022-12-26T05:20:28;11.27;91.77
52656;SHT85;35474;51.032;6.998;2022-12-26T05:23:24;11.26;92.13
52656;SHT85;35474;51.032;6.998;2022-12-26T05:26:13;11.23;92.59
52656;SHT85;35474;51.032;6.998;2022-12-26T05:29:01;11.20;92.71
52656;SHT85;35474;51.032;6.998;2022-12-26T05:31:29;11.21;92.94
52656;SHT85;35474;51.032;6.998;2022-12-26T05:34:01;11.14;93.39
52656;SHT85;35474;51.032;6.998;2022-12-26T05:36:36;11.06;94.06
52656;SHT85;35474;51.032;6.998;2022-12-26T05:39:07;11.11;94.44
52656;SHT85;35474;51.032;6.998;2022-12-26T05:41:35;11.03;94.77
52656;SHT85;35474;51.032;6.998;2022-12-26T05:44:03;11.08;94.52
52656;SHT85;35474;51.032;6.998;2022-12-26T05:46:30;11.10;94.95
52656;SHT85;35474;51.032;6.998;2022-12-26T05:48:56;11.07;94.85
52656;SHT85;35474;51.032;6.998;2022-12-26T05:51:23;11.07;95.07
52656;SHT85;35474;51.032;6.998;2022-12-26T05:53:52;10.99;95.01
52656;SHT85;35474;51.032;6.998;2022-12-26T05:56:19;10.93;95.18
52656;SHT85;35474;51.032;6.998;2022-12-26T05:58:46;10.86;95.37
52656;SHT85;35474;51.032;6.998;2022-12-26T06:01:19;10.84;95.75
52656;SHT85;35474;51.032;6.998;2022-12-26T06:03:47;10.77;96.09
52656;SHT85;35474;51.032;6.998;2022-12-26T06:06:16;10.70;96.19
52656;SHT85;35474;51.032;6.998;2022-12-26T06:08:48;10.70;96.43
52656;SHT85;35474;51.032;6.998;2022-12-26T06:11:17;10.72;96.61
52656;SHT85;35474;51.032;6.998;2022-12-26T06:13:44;10.75;96.47
52656;SHT85;35474;51.032;6.998;2022-12-26T06:16:13;10.70;96.42
52656;SHT85;35474;51.032;6.998;2022-12-26T06:18:41;10.65;95.89
52656;SHT85;35474;51.032;6.998;2022-12-26T06:21:12;10.62;95.93
52656;SHT85;35474;51.032;6.998;2022-12-26T06:23:41;10.56;95.63
52656;SHT85;35474;51.032;6.998;2022-12-26T06:26:07;10.59;95.28
52656;SHT85;35474;51.032;6.998;2022-12-26T06:28:35;10.60;94.88
52656;SHT85;35474;51.032;6.998;2022-12-26T06:31:10;10.65;94.40
52656;SHT85;35474;51.032;6.998;2022-12-26T06:33:41;10.69;94.25
52656;SHT85;35474;51.032;6.998;2022-12-26T06:36:09;10.70;93.73
52656;SHT85;35474;51.032;6.998;2022-12-26T06:38:37;10.79;93.22
52656;SHT85;35474;51.032;6.998;2022-12-26T06:41:04;10.72;92.92
52656;SHT85;35474;51.032;6.998;2022-12-26T06:43:33;10.80;93.00
52656;SHT85;35474;51.032;6.998;2022-12-26T06:46:01;10.77;93.14
52656;SHT85;35474;51.032;6.998;2022-12-26T06:48:29;10.77;92.69
52656;SHT85;35474;51.032;6.998;2022-12-26T06:50:56;10.77;92.59
52656;SHT85;35474;51.032;6.998;2022-12-26T06:53:23;10.80;92.49
52656;SHT85;35474;51.032;6.998;2022-12-26T06:55:50;10.83;92.02
52656;SHT85;35474;51.032;6.998;2022-12-26T06:58:17;10.86;91.80
52656;SHT85;35474;51.032;6.998;2022-12-26T07:00:43;10.83;91.88
52656;SHT85;35474;51.032;6.998;2022-12-26T07:03:10;10.77;91.90
52656;SHT85;35474;51.032;6.998;2022-12-26T07:05:37;10.87;91.61
52656;SHT85;35474;51.032;6.998;2022-12-26T07:08:04;10.90;91.49
52656;SHT85;35474;51.032;6.998;2022-12-26T07:10:33;10.96;91.22
52656;SHT85;35474;51.032;6.998;2022-12-26T07:13:01;10.97;91.20
52656;SHT85;35474;51.032;6.998;2022-12-26T07:15:28;10.96;91.39
52656;SHT85;35474;51.032;6.998;2022-12-26T07:17:54;10.93;91.60
52656;SHT85;35474;51.032;6.998;2022-12-26T07:20:21;10.86;92.03
52656;SHT85;35474;51.032;6.998;2022-12-26T07:22:47;10.86;92.29
52656;SHT85;35474;51.032;6.998;2022-12-26T07:25:14;10.80;92.17
52656;SHT85;35474;51.032;6.998;2022-12-26T07:27:40;10.75;92.71
52656;SHT85;35474;51.032;6.998;2022-12-26T07:32:35;10.72;93.14
52656;SHT85;35474;51.032;6.998;2022-12-26T07:35:02;10.84;92.22
52656;SHT85;35474;51.032;6.998;2022-12-26T07:37:28;10.84;92.17
52656;SHT85;35474;51.032;6.998;2022-12-26T07:39:55;10.91;91.24
52656;SHT85;35474;51.032;6.998;2022-12-26T07:42:24;10.97;90.59
52656;SHT85;35474;51.032;6.998;2022-12-26T07:44:53;10.93;90.19
52656;SHT85;35474;51.032;6.998;2022-12-26T07:47:19;10.93;90.26
52656;SHT85;35474;51.032;6.998;2022-12-26T07:49:46;10.90;90.17
52656;SHT85;35474;51.032;6.998;2022-12-26T07:52:12;10.87;90.29
52656;SHT85;35474;51.032;6.998;2022-12-26T07:54:39;10.87;90.26
52656;SHT85;35474;51.032;6.998;2022-12-26T07:57:05;10.83;90.19
52656;SHT85;35474;51.032;6.998;2022-12-26T07:59:52;10.86;90.15
52656;SHT85;35474;51.032;6.998;2022-12-26T08:02:19;10.81;90.34
52656;SHT85;35474;51.032;6.998;2022-12-26T08:04:45;10.80;90.01
52656;SHT85;35474;51.032;6.998;2022-12-26T08:07:12;10.80;89.63
52656;SHT85;35474;51.032;6.998;2022-12-26T08:09:38;10.80;89.67
52656;SHT85;35474;51.032;6.998;2022-12-26T08:12:08;10.76;89.55
52656;SHT85;35474;51.032;6.998;2022-12-26T08:14:35;10.76;89.61
52656;SHT85;35474;51.032;6.998;2022-12-26T08:17:02;10.79;89.68
52656;SHT85;35474;51.032;6.998;2022-12-26T08:19:29;10.81;89.44
52656;SHT85;35474;51.032;6.998;2022-12-26T08:21:55;10.77;89.71
52656;SHT85;35474;51.032;6.998;2022-12-26T08:24:22;10.73;90.05
52656;SHT85;35474;51.032;6.998;2022-12-26T08:26:48;10.69;90.30
52656;SHT85;35474;51.032;6.998;2022-12-26T08:29:15;10.81;89.77
52656;SHT85;35474;51.032;6.998;2022-12-26T08:31:41;10.89;89.26
52656;SHT85;35474;51.032;6.998;2022-12-26T08:34:08;10.83;89.39
52656;SHT85;35474;51.032;6.998;2022-12-26T08:36:36;10.87;89.69
52656;SHT85;35474;51.032;6.998;2022-12-26T08:39:03;10.79;89.76
52656;SHT85;35474;51.032;6.998;2022-12-26T08:41:31;10.77;89.79
52656;SHT85;35474;51.032;6.998;2022-12-26T08:43:58;10.70;89.86
52656;SHT85;35474;51.032;6.998;2022-12-26T08:46:44;10.72;90.43
52656;SHT85;35474;51.032;6.998;2022-12-26T08:49:11;10.86;89.82
52656;SHT85;35474;51.032;6.998;2022-12-26T08:51:38;11.08;88.15
52656;SHT85;35474;51.032;6.998;2022-12-26T08:54:05;11.10;88.46
52656;SHT85;35474;51.032;6.998;2022-12-26T08:56:31;11.16;88.06
52656;SHT85;35474;51.032;6.998;2022-12-26T08:58:58;11.34;86.43
52656;SHT85;35474;51.032;6.998;2022-12-26T09:01:26;11.37;86.62
52656;SHT85;35474;51.032;6.998;2022-12-26T09:03:56;11.48;87.21
52656;SHT85;35474;51.032;6.998;2022-12-26T09:06:24;11.39;87.79
52656;SHT85;35474;51.032;6.998;2022-12-26T09:08:51;11.54;87.48
52656;SHT85;35474;51.032;6.998;2022-12-26T09:11:19;11.44;87.27
52656;SHT85;35474;51.032;6.998;2022-12-26T09:13:47;11.37;86.87
52656;SHT85;35474;51.032;6.998;2022-12-26T09:16:15;11.48;85.96
52656;SHT85;35474;51.032;6.998;2022-12-26T09:18:43;11.55;86.57
52656;SHT85;35474;51.032;6.998;2022-12-26T09:21:10;11.62;84.97
52656;SHT85;35474;51.032;6.998;2022-12-26T09:23:39;11.59;85.80
52656;SHT85;35474;51.032;6.998;2022-12-26T09:26:10;11.61;85.92
52656;SHT85;35474;51.032;6.998;2022-12-26T09:28:39;11.66;84.82
52656;SHT85;35474;51.032;6.998;2022-12-26T09:31:08;11.69;85.18
52656;SHT85;35474;51.032;6.998;2022-12-26T09:33:37;11.70;84.71
52656;SHT85;35474;51.032;6.998;2022-12-26T09:36:14;11.65;85.06
52656;SHT85;35474;51.032;6.998;2022-12-26T09:38:45;11.72;85.39
52656;SHT85;35474;51.032;6.998;2022-12-26T09:49:44;11.83;83.63
52656;SHT85;35474;51.032;6.998;2022-12-26T09:52:36;11.83;83.24
52656;SHT85;35474;51.032;6.998;2022-12-26T09:55:16;11.82;82.88
52656;SHT85;35474;51.032;6.998;2022-12-26T09:58:04;11.86;82.50
52656;SHT85;35474;51.032;6.998;2022-12-26T10:00:42;11.82;82.61
52656;SHT85;35474;51.032;6.998;2022-12-26T10:03:14;11.82;82.37
52656;SHT85;35474;51.032;6.998;2022-12-26T10:05:54;11.88;81.85
52656;SHT85;35474;51.032;6.998;2022-12-26T10:14:11;12.12;80.59
52656;SHT85;35474;51.032;6.998;2022-12-26T10:16:51;12.06;80.96
52656;SHT85;35474;51.032;6.998;2022-12-26T10:28:26;12.02;80.65
52656;SHT85;35474;51.032;6.998;2022-12-26T10:30:53;11.99;80.40
52656;SHT85;35474;51.032;6.998;2022-12-26T10:36:26;11.93;80.18
52656;SHT85;35474;51.032;6.998;2022-12-26T10:38:57;12.00;79.74
52656;SHT85;35474;51.032;6.998;2022-12-26T10:41:49;11.99;79.60
52656;SHT85;35474;51.032;6.998;2022-12-26T10:44:16;11.99;79.56
52656;SHT85;35474;51.032;6.998;2022-12-26T10:49:34;11.97;79.47
52656;SHT85;35474;51.032;6.998;2022-12-26T10:52:01;12.06;78.76
52656;SHT85;35474;51.032;6.998;2022-12-26T10:54:29;12.09;79.07
52656;SHT85;35474;51.032;6.998;2022-12-26T10:56:56;12.14;78.78
52656;SHT85;35474;51.032;6.998;2022-12-26T10:59:40;12.18;77.88
52656;SHT85;35474;51.032;6.998;2022-12-26T11:08:05;12.26;76.89
52656;SHT85;35474;51.032;6.998;2022-12-26T11:10:34;12.24;77.11
52656;SHT85;35474;51.032;6.998;2022-12-26T11:13:02;12.21;76.86
52656;SHT85;35474;51.032;6.998;2022-12-26T11:18:07;12.24;75.89
52656;SHT85;35474;51.032;6.998;2022-12-26T11:20:34;12.26;76.48
52656;SHT85;35474;51.032;6.998;2022-12-26T11:23:11;12.23;76.59
52656;SHT85;35474;51.032;6.998;2022-12-26T11:25:53;12.20;76.01
52656;SHT85;35474;51.032;6.998;2022-12-26T11:28:26;12.16;76.55
52656;SHT85;35474;51.032;6.998;2022-12-26T11:31:03;12.16;76.43
52656;SHT85;35474;51.032;6.998;2022-12-26T11:33:33;12.14;76.33
52656;SHT85;35474;51.032;6.998;2022-12-26T11:36:09;12.13;76.63
52656;SHT85;35474;51.032;6.998;2022-12-26T11:38:52;12.12;76.61
52656;SHT85;35474;51.032;6.998;2022-12-26T11:46:59;12.16;76.59
52656;SHT85;35474;51.032;6.998;2022-12-26T11:49:38;12.14;76.15
52656;SHT85;35474;51.032;6.998;2022-12-26T11:52:31;12.21;76.57
52656;SHT85;35474;51.032;6.998;2022-12-26T11:58:01;12.36;74.99
52656;SHT85;35474;51.032;6.998;2022-12-26T12:00:35;12.34;74.66
52656;SHT85;35474;51.032;6.998;2022-12-26T12:03:11;12.31;74.58
52656;SHT85;35474;51.032;6.998;2022-12-26T12:05:50;12.34;74.40
52656;SHT85;35474;51.032;6.998;2022-12-26T12:30:22;12.03;75.92
52656;SHT85;35474;51.032;6.998;2022-12-26T12:33:04;12.07;75.88
52656;SHT85;35474;51.032;6.998;2022-12-26T12:35:41;12.07;75.98
52656;SHT85;35474;51.032;6.998;2022-12-26T12:38:35;11.97;75.75
52656;SHT85;35474;51.032;6.998;2022-12-26T12:44:25;11.96;75.84
52656;SHT85;35474;51.032;6.998;2022-12-26T12:58:35;11.85;76.77
52656;SHT85;35474;51.032;6.998;2022-12-26T13:01:18;11.72;77.43
52656;SHT85;35474;51.032;6.998;2022-12-26T13:03:55;11.70;77.71
52656;SHT85;35474;51.032;6.998;2022-12-26T13:06:29;11.72;77.59
52656;SHT85;35474;51.032;6.998;2022-12-26T13:09:19;11.76;78.08
52656;SHT85;35474;51.032;6.998;2022-12-26T13:11:57;11.75;78.07
52656;SHT85;35474;51.032;6.998;2022-12-26T13:14:31;11.72;78.29
52656;SHT85;35474;51.032;6.998;2022-12-26T13:20:30;11.21;82.12
52656;SHT85;35474;51.032;6.998;2022-12-26T13:23:04;11.04;83.44
52656;SHT85;35474;51.032;6.998;2022-12-26T13:31:32;11.16;82.05
52656;SHT85;35474;51.032;6.998;2022-12-26T13:34:00;10.99;83.32
52656;SHT85;35474;51.032;6.998;2022-12-26T13:36:37;10.32;85.16
52656;SHT85;35474;51.032;6.998;2022-12-26T13:41:38;9.54;89.21
52656;SHT85;35474;51.032;6.998;2022-12-26T13:44:32;9.57;89.76
52656;SHT85;35474;51.032;6.998;2022-12-26T13:46:59;9.54;90.61
52656;SHT85;35474;51.032;6.998;2022-12-26T13:49:39;9.53;91.43
52656;SHT85;35474;51.032;6.998;2022-12-26T13:54:36;9.47;93.00
52656;SHT85;35474;51.032;6.998;2022-12-26T14:19:25;8.73;95.25
52656;SHT85;35474;51.032;6.998;2022-12-26T14:27:33;8.85;94.27
52656;SHT85;35474;51.032;6.998;2022-12-26T14:33:21;8.82;94.04
52656;SHT85;35474;51.032;6.998;2022-12-26T14:41:21;8.89;93.51
52656;SHT85;35474;51.032;6.998;2022-12-26T14:47:03;9.00;93.28
52656;SHT85;35474;51.032;6.998;2022-12-26T14:54:57;9.07;93.65
52656;SHT85;35474;51.032;6.998;2022-12-26T15:05:27;9.25;92.89
52656;SHT85;35474;51.032;6.998;2022-12-26T15:08:06;9.19;93.18
52656;SHT85;35474;51.032;6.998;2022-12-26T15:16:16;9.00;91.36
52656;SHT85;35474;51.032;6.998;2022-12-26T15:19:07;8.81;89.66
52656;SHT85;35474;51.032;6.998;2022-12-26T15:25:01;8.71;83.07
52656;SHT85;35474;51.032;6.998;2022-12-26T15:30:47;8.73;82.01
52656;SHT85;35474;51.032;6.998;2022-12-26T15:33:34;8.70;82.87
52656;SHT85;35474;51.032;6.998;2022-12-26T15:41:34;8.63;83.00
52656;SHT85;35474;51.032;6.998;2022-12-26T15:44:14;8.65;83.23
52656;SHT85;35474;51.032;6.998;2022-12-26T15:49:34;8.65;83.57
52656;SHT85;35474;51.032;6.998;2022-12-26T15:52:33;8.65;82.94
52656;SHT85;35474;51.032;6.998;2022-12-26T15:57:48;8.61;82.32
52656;SHT85;35474;51.032;6.998;2022-12-26T16:00:23;8.54;83.44
52656;SHT85;35474;51.032;6.998;2022-12-26T16:02:59;8.52;83.09
52656;SHT85;35474;51.032;6.998;2022-12-26T16:05:39;8.46;82.94
52656;SHT85;35474;51.032;6.998;2022-12-26T16:08:16;8.44;82.85
52656;SHT85;35474;51.032;6.998;2022-12-26T16:13:50;8.42;80.30
52656;SHT85;35474;51.032;6.998;2022-12-26T16:16:26;8.49;79.88
52656;SHT85;35474;51.032;6.998;2022-12-26T16:21:55;8.40;79.62
52656;SHT85;35474;51.032;6.998;2022-12-26T16:24:48;8.33;78.76
52656;SHT85;35474;51.032;6.998;2022-12-26T16:27:17;8.28;78.47
52656;SHT85;35474;51.032;6.998;2022-12-26T16:29:56;8.34;79.72
52656;SHT85;35474;51.032;6.998;2022-12-26T16:32:33;8.28;79.29
52656;SHT85;35474;51.032;6.998;2022-12-26T16:35:01;8.22;78.68
52656;SHT85;35474;51.032;6.998;2022-12-26T16:37:29;8.21;79.48
52656;SHT85;35474;51.032;6.998;2022-12-26T16:42:54;8.16;79.74
52656;SHT85;35474;51.032;6.998;2022-12-26T16:45:30;8.15;79.97
52656;SHT85;35474;51.032;6.998;2022-12-26T16:47:59;8.05;80.65
52656;SHT85;35474;51.032;6.998;2022-12-26T16:50:27;8.05;80.85
52656;SHT85;35474;51.032;6.998;2022-12-26T16:53:14;8.05;81.30
52656;SHT85;35474;51.032;6.998;2022-12-26T16:55:46;8.05;81.34
52656;SHT85;35474;51.032;6.998;2022-12-26T16:58:20;8.02;81.43
52656;SHT85;35474;51.032;6.998;2022-12-26T17:06:29;7.92;81.44
52656;SHT85;35474;51.032;6.998;2022-12-26T17:09:04;7.93;81.62
52656;SHT85;35474;51.032;6.998;2022-12-26T17:11:34;7.91;80.77
52656;SHT85;35474;51.032;6.998;2022-12-26T17:14:05;7.84;80.33
52656;SHT85;35474;51.032;6.998;2022-12-26T17:16:41;7.77;79.85
52656;SHT85;35474;51.032;6.998;2022-12-26T17:19:18;7.65;78.51
52656;SHT85;35474;51.032;6.998;2022-12-26T17:24:47;7.57;80.33
52656;SHT85;35474;51.032;6.998;2022-12-26T17:29:53;7.44;78.54
52656;SHT85;35474;51.032;6.998;2022-12-26T17:32:43;7.23;77.67
52656;SHT85;35474;51.032;6.998;2022-12-26T17:35:12;7.23;77.30
52656;SHT85;35474;51.032;6.998;2022-12-26T17:37:42;7.13;76.20
52656;SHT85;35474;51.032;6.998;2022-12-26T17:40:18;7.19;76.57
52656;SHT85;35474;51.032;6.998;2022-12-26T17:42:53;7.22;76.23
52656;SHT85;35474;51.032;6.998;2022-12-26T17:45:23;7.17;76.91
52656;SHT85;35474;51.032;6.998;2022-12-26T17:47:51;7.12;75.30
52656;SHT85;35474;51.032;6.998;2022-12-26T17:50:20;7.06;74.38
52656;SHT85;35474;51.032;6.998;2022-12-26T17:52:48;6.97;74.37
52656;SHT85;35474;51.032;6.998;2022-12-26T17:55:23;6.93;74.12
52656;SHT85;35474;51.032;6.998;2022-12-26T17:57:52;6.97;74.15
52656;SHT85;35474;51.032;6.998;2022-12-26T18:00:20;6.89;74.40
52656;SHT85;35474;51.032;6.998;2022-12-26T18:02:49;6.75;74.27
52656;SHT85;35474;51.032;6.998;2022-12-26T18:05:16;6.67;74.90
52656;SHT85;35474;51.032;6.998;2022-12-26T18:07:45;6.58;74.53
52656;SHT85;35474;51.032;6.998;2022-12-26T18:10:15;6.47;74.37
52656;SHT85;35474;51.032;6.998;2022-12-26T18:12:47;6.37;75.28
52656;SHT85;35474;51.032;6.998;2022-12-26T18:15:14;6.30;75.30
52656;SHT85;35474;51.032;6.998;2022-12-26T18:17:42;6.16;75.33
52656;SHT85;35474;51.032;6.998;2022-12-26T18:20:13;6.11;75.48
52656;SHT85;35474;51.032;6.998;2022-12-26T18:22:45;6.03;75.88
52656;SHT85;35474;51.032;6.998;2022-12-26T18:25:15;5.99;76.45
52656;SHT85;35474;51.032;6.998;2022-12-26T18:27:43;5.96;76.64
52656;SHT85;35474;51.032;6.998;2022-12-26T18:30:19;5.89;76.71
52656;SHT85;35474;51.032;6.998;2022-12-26T18:32:48;5.83;76.08
52656;SHT85;35474;51.032;6.998;2022-12-26T18:35:16;5.86;75.99
52656;SHT85;35474;51.032;6.998;2022-12-26T18:37:45;5.82;76.60
52656;SHT85;35474;51.032;6.998;2022-12-26T18:42:49;5.67;77.04
52656;SHT85;35474;51.032;6.998;2022-12-26T18:45:15;5.59;77.46
52656;SHT85;35474;51.032;6.998;2022-12-26T18:47:42;5.55;77.80
52656;SHT85;35474;51.032;6.998;2022-12-26T18:50:09;5.54;78.13
52656;SHT85;35474;51.032;6.998;2022-12-26T18:52:36;5.56;77.27
52656;SHT85;35474;51.032;6.998;2022-12-26T18:57:34;5.46;77.43
52656;SHT85;35474;51.032;6.998;2022-12-26T19:00:02;5.41;77.66
52656;SHT85;35474;51.032;6.998;2022-12-26T19:02:29;5.38;77.87
52656;SHT85;35474;51.032;6.998;2022-12-26T19:04:56;5.34;78.32
52656;SHT85;35474;51.032;6.998;2022-12-26T19:07:23;5.28;78.40
52656;SHT85;35474;51.032;6.998;2022-12-26T19:09:50;5.35;78.05
52656;SHT85;35474;51.032;6.998;2022-12-26T19:12:21;5.25;78.30
52656;SHT85;35474;51.032;6.998;2022-12-26T19:14:48;5.27;78.12
52656;SHT85;35474;51.032;6.998;2022-12-26T19:17:15;5.17;78.20
52656;SHT85;35474;51.032;6.998;2022-12-26T19:19:42;5.21;78.30
52656;SHT85;35474;51.032;6.998;2022-12-26T19:22:09;5.17;78.19
52656;SHT85;35474;51.032;6.998;2022-12-26T19:24:36;5.14;78.50
52656;SHT85;35474;51.032;6.998;2022-12-26T19:27:03;5.23;77.68
52656;SHT85;35474;51.032;6.998;2022-12-26T19:29:30;5.18;78.06
52656;SHT85;35474;51.032;6.998;2022-12-26T19:31:57;5.11;78.36
52656;SHT85;35474;51.032;6.998;2022-12-26T19:34:24;5.08;78.38
52656;SHT85;35474;51.032;6.998;2022-12-26T19:36:50;5.16;78.08
52656;SHT85;35474;51.032;6.998;2022-12-26T19:39:18;5.17;78.07
52656;SHT85;35474;51.032;6.998;2022-12-26T19:41:44;5.10;78.17
52656;SHT85;35474;51.032;6.998;2022-12-26T19:44:11;5.03;78.53
52656;SHT85;35474;51.032;6.998;2022-12-26T19:46:37;5.03;78.50
52656;SHT85;35474;51.032;6.998;2022-12-26T19:49:04;5.01;78.76
52656;SHT85;35474;51.032;6.998;2022-12-26T19:51:30;5.00;78.61
52656;SHT85;35474;51.032;6.998;2022-12-26T19:53:56;5.01;78.66
52656;SHT85;35474;51.032;6.998;2022-12-26T19:56:24;5.04;78.68
52656;SHT85;35474;51.032;6.998;2022-12-26T19:58:52;5.01;79.07
52656;SHT85;35474;51.032;6.998;2022-12-26T20:01:25;5.06;78.92
52656;SHT85;35474;51.032;6.998;2022-12-26T20:03:54;5.00;79.34
52656;SHT85;35474;51.032;6.998;2022-12-26T20:06:23;4.90;79.54
52656;SHT85;35474;51.032;6.998;2022-12-26T20:08:51;4.98;79.42
52656;SHT85;35474;51.032;6.998;2022-12-26T20:11:24;4.84;79.75